createdAt,value
2023-02-28T00:00:19.443Z,2.80
2023-02-28T00:02:51.930Z,2.25
2023-02-28T00:05:26.064Z,2.50
2023-02-28T00:07:57.556Z,2.53
2023-02-28T00:10:31.674Z,2.17
2023-02-28T00:13:07.131Z,2.45
2023-02-28T00:15:38.765Z,2.63
2023-02-28T00:18:11.724Z,2.38
2023-02-28T00:20:43.163Z,2.67
2023-02-28T00:23:14.412Z,2.67
2023-02-28T00:25:45.150Z,2.50
2023-02-28T00:28:15.401Z,2.70
2023-02-28T00:30:46.565Z,2.47
2023-02-28T00:33:18.741Z,2.60
2023-02-28T00:35:50.361Z,2.90
2023-02-28T00:38:20.804Z,2.70
2023-02-28T00:40:51.000Z,2.75
2023-02-28T00:43:22.392Z,2.60
2023-02-28T00:45:52.776Z,2.67
2023-02-28T00:48:24.753Z,2.85
2023-02-28T00:51:06.214Z,2.70
2023-02-28T00:53:37.302Z,2.70
2023-02-28T00:56:10.330Z,2.92
2023-02-28T00:58:40.571Z,3.03
2023-02-28T01:01:11.188Z,2.60
2023-02-28T01:03:45.750Z,3.10
2023-02-28T01:06:16.818Z,2.65
2023-02-28T01:08:47.330Z,2.88
2023-02-28T01:11:20.885Z,2.97
2023-02-28T01:13:52.313Z,2.58
2023-02-28T01:16:23.189Z,2.70
2023-02-28T01:18:57.581Z,2.47
2023-02-28T01:21:29.646Z,2.72
2023-02-28T01:24:02.257Z,2.72
2023-02-28T01:26:33.149Z,2.63
2023-02-28T01:29:05.081Z,2.80
2023-02-28T01:31:35.842Z,2.60
2023-02-28T01:34:08.009Z,2.75
2023-02-28T01:36:39.561Z,2.55
2023-02-28T01:39:09.990Z,2.80
2023-02-28T01:41:41.214Z,2.72
2023-02-28T01:44:44.906Z,2.50
2023-02-28T01:47:20.581Z,2.63
2023-02-28T01:49:55.085Z,2.60
2023-02-28T01:52:31.142Z,2.38
2023-02-28T01:55:05.910Z,2.45
2023-02-28T01:57:44.204Z,2.53
2023-02-28T02:00:20.589Z,2.50
2023-02-28T02:03:10.264Z,2.63
2023-02-28T02:05:49.125Z,2.28
2023-02-28T02:08:25.022Z,2.55
2023-02-28T02:11:00.140Z,2.80
2023-02-28T02:13:54.370Z,2.60
2023-02-28T02:16:48.954Z,2.50
2023-02-28T02:20:12.177Z,2.10
2023-02-28T02:23:31.000Z,2.40
2023-02-28T02:26:17.583Z,2.40
2023-02-28T02:29:34.220Z,2.50
2023-02-28T02:33:06.878Z,2.50
2023-02-28T02:35:50.276Z,2.30
2023-02-28T02:38:38.325Z,2.40
2023-02-28T02:41:20.414Z,2.40
2023-02-28T02:43:59.982Z,2.60
2023-02-28T02:46:35.233Z,2.47
2023-02-28T02:49:25.416Z,2.30
2023-02-28T02:52:00.868Z,2.30
2023-02-28T02:54:38.903Z,2.40
2023-02-28T02:57:14.502Z,2.40
2023-02-28T02:59:46.145Z,2.38
2023-02-28T03:02:20.415Z,2.42
2023-02-28T03:04:56.739Z,2.60
2023-02-28T03:07:30.329Z,2.65
2023-02-28T03:10:02.964Z,2.78
2023-02-28T03:12:43.986Z,2.63
2023-02-28T03:15:28.521Z,2.25
2023-02-28T03:18:11.815Z,2.40
2023-02-28T03:20:58.238Z,2.35
2023-02-28T03:23:42.238Z,2.45
2023-02-28T03:26:22.885Z,2.67
2023-02-28T03:29:07.530Z,2.50
2023-02-28T03:31:47.176Z,2.10
2023-02-28T03:34:27.608Z,2.33
2023-02-28T03:37:05.343Z,2.53
2023-02-28T03:39:43.957Z,2.38
2023-02-28T03:42:20.649Z,2.25
2023-02-28T03:44:58.672Z,2.25
2023-02-28T03:47:36.149Z,2.30
2023-02-28T03:50:15.672Z,2.33
2023-02-28T03:52:53.771Z,2.40
2023-02-28T03:55:27.713Z,2.55
2023-02-28T03:58:08.728Z,2.30
2023-02-28T04:00:43.127Z,2.15
2023-02-28T04:03:14.206Z,2.30
2023-02-28T04:05:55.420Z,2.35
2023-02-28T04:08:27.062Z,2.33
2023-02-28T04:11:07.370Z,2.40
2023-02-28T04:13:38.988Z,2.30
2023-02-28T04:16:24.534Z,2.28
2023-02-28T04:19:06.742Z,2.30
2023-02-28T04:21:42.529Z,2.40
2023-02-28T04:24:15.888Z,2.17
2023-02-28T04:26:51.954Z,2.25
2023-02-28T04:29:33.092Z,2.35
2023-02-28T04:32:05.671Z,2.50
2023-02-28T04:34:36.146Z,2.50
2023-02-28T04:37:13.629Z,2.40
2023-02-28T04:39:45.874Z,2.40
2023-02-28T04:42:19.600Z,2.33
2023-02-28T04:44:50.751Z,2.20
2023-02-28T04:47:21.290Z,2.35
2023-02-28T04:49:51.337Z,2.38
2023-02-28T04:52:21.844Z,2.13
2023-02-28T04:54:52.480Z,2.50
2023-02-28T04:57:24.815Z,2.30
2023-02-28T04:59:55.268Z,2.38
2023-02-28T05:02:28.968Z,2.30
2023-02-28T05:04:59.104Z,2.40
2023-02-28T05:07:29.671Z,2.10
2023-02-28T05:10:02.020Z,2.22
2023-02-28T05:12:33.971Z,2.30
2023-02-28T05:15:06.434Z,2.30
2023-02-28T05:17:36.269Z,2.30
2023-02-28T05:20:15.319Z,2.33
2023-02-28T05:22:47.076Z,2.28
2023-02-28T05:25:23.630Z,1.95
2023-02-28T05:27:56.468Z,2.28
2023-02-28T05:30:26.305Z,2.30
2023-02-28T05:32:56.406Z,2.40
2023-02-28T05:35:27.873Z,2.45
2023-02-28T05:37:58.008Z,2.38
2023-02-28T05:40:28.556Z,2.22
2023-02-28T05:43:01.382Z,2.30
2023-02-28T05:45:31.685Z,2.03
2023-02-28T05:48:02.248Z,2.35
2023-02-28T05:50:32.687Z,2.60
2023-02-28T05:53:03.270Z,2.50
2023-02-28T05:55:34.556Z,2.42
2023-02-28T05:58:06.819Z,2.10
2023-02-28T06:00:37.861Z,2.17
2023-02-28T06:03:08.449Z,2.20
2023-02-28T06:05:40.073Z,2.40
2023-02-28T06:08:10.540Z,2.35
2023-02-28T06:10:41.531Z,2.05
2023-02-28T06:13:14.250Z,2.30
2023-02-28T06:15:44.853Z,1.95
2023-02-28T06:18:15.280Z,2.20
2023-02-28T06:20:46.081Z,2.10
2023-02-28T06:23:16.807Z,1.98
2023-02-28T06:25:51.122Z,1.98
2023-02-28T06:28:23.495Z,1.92
2023-02-28T06:30:54.953Z,1.92
2023-02-28T06:33:26.997Z,2.00
2023-02-28T06:35:58.596Z,2.20
2023-02-28T06:38:29.850Z,2.22
2023-02-28T06:41:03.749Z,2.28
2023-02-28T06:43:39.918Z,2.10
2023-02-28T06:46:15.178Z,2.25
2023-02-28T06:48:46.991Z,2.60
2023-02-28T06:51:21.853Z,2.60
2023-02-28T06:53:54.015Z,2.80
2023-02-28T06:56:25.646Z,2.60
2023-02-28T06:58:58.410Z,2.65
2023-02-28T07:01:30.158Z,2.72
2023-02-28T07:04:01.688Z,2.05
2023-02-28T07:06:32.477Z,2.45
2023-02-28T07:09:06.502Z,2.30
2023-02-28T07:11:36.764Z,2.40
2023-02-28T07:14:09.765Z,2.58
2023-02-28T07:16:40.694Z,2.92
2023-02-28T07:19:11.380Z,2.50
2023-02-28T07:21:41.616Z,2.75
2023-02-28T07:24:13.002Z,3.10
2023-02-28T07:26:44.365Z,3.15
2023-02-28T07:29:20.030Z,3.15
2023-02-28T07:31:52.086Z,3.10
2023-02-28T07:34:22.322Z,2.92
2023-02-28T07:36:54.781Z,2.70
2023-02-28T07:39:25.285Z,3.00
2023-02-28T07:41:55.736Z,2.70
2023-02-28T07:44:28.375Z,2.40
2023-02-28T07:46:58.739Z,2.67
2023-02-28T07:49:28.472Z,3.30
2023-02-28T07:51:59.179Z,2.80
2023-02-28T07:54:29.451Z,2.38
2023-02-28T07:56:59.400Z,2.53
2023-02-28T07:59:32.405Z,2.60
2023-02-28T08:02:03.331Z,2.50
2023-02-28T08:04:36.647Z,2.40
2023-02-28T08:07:07.121Z,2.60
2023-02-28T08:09:38.015Z,2.40
2023-02-28T08:12:09.292Z,2.70
2023-02-28T08:14:43.177Z,2.42
2023-02-28T08:17:15.290Z,2.55
2023-02-28T08:19:46.184Z,2.45
2023-02-28T08:22:16.486Z,2.40
2023-02-28T08:24:47.676Z,2.90
2023-02-28T08:27:19.001Z,3.30
2023-02-28T08:29:52.407Z,2.75
2023-02-28T08:32:29.808Z,3.10
2023-02-28T08:35:01.684Z,3.20
2023-02-28T08:37:32.097Z,3.05
2023-02-28T08:40:07.778Z,3.00
2023-02-28T08:42:38.645Z,2.88
2023-02-28T08:45:26.030Z,2.90
2023-02-28T08:47:58.698Z,2.60
2023-02-28T08:50:29.285Z,2.92
2023-02-28T08:52:59.983Z,3.13
2023-02-28T08:55:31.047Z,2.70
2023-02-28T08:58:02.717Z,2.38
2023-02-28T09:00:35.431Z,2.58
2023-02-28T09:03:06.112Z,2.33
2023-02-28T09:05:38.989Z,2.88
2023-02-28T09:08:10.074Z,2.70
2023-02-28T09:10:40.411Z,2.85
2023-02-28T09:13:11.146Z,2.70
2023-02-28T09:15:44.751Z,2.70
2023-02-28T09:18:15.579Z,3.15
2023-02-28T09:20:47.087Z,2.95
2023-02-28T09:23:18.249Z,2.65
2023-02-28T09:25:53.169Z,2.70
2023-02-28T09:28:24.709Z,2.70
2023-02-28T09:30:58.977Z,2.58
2023-02-28T09:33:31.000Z,2.60
2023-02-28T09:36:06.333Z,2.30
2023-02-28T09:38:37.076Z,2.25
2023-02-28T09:41:16.789Z,2.40
2023-02-28T09:43:52.380Z,2.50
2023-02-28T09:46:38.686Z,2.50
2023-02-28T09:49:14.785Z,2.55
2023-02-28T09:51:56.259Z,2.90
2023-02-28T09:54:31.329Z,2.70
2023-02-28T09:57:10.302Z,2.63
2023-02-28T10:00:11.296Z,2.30
2023-02-28T10:03:26.324Z,2.80
2023-02-28T10:06:05.590Z,2.42
2023-02-28T10:08:44.225Z,2.38
2023-02-28T10:11:22.127Z,2.20
2023-02-28T10:14:03.875Z,2.40
2023-02-28T10:16:40.117Z,2.65
2023-02-28T10:19:23.607Z,2.30
2023-02-28T10:22:02.536Z,2.70
2023-02-28T10:24:40.160Z,2.38
2023-02-28T10:27:21.741Z,2.67
2023-02-28T10:29:59.072Z,2.70
2023-02-28T10:32:34.907Z,2.70
2023-02-28T10:35:19.924Z,2.80
2023-02-28T10:37:52.982Z,2.60
2023-02-28T10:40:36.969Z,2.85
2023-02-28T10:43:09.716Z,2.55
2023-02-28T10:45:40.630Z,3.00
2023-02-28T10:48:35.144Z,3.08
2023-02-28T10:51:11.623Z,2.72
2023-02-28T10:54:02.333Z,2.78
2023-02-28T10:56:34.682Z,2.40
2023-02-28T10:59:25.662Z,2.85
2023-02-28T11:01:56.970Z,2.80
2023-02-28T11:04:41.620Z,2.67
2023-02-28T11:07:25.766Z,2.63
2023-02-28T11:10:01.606Z,2.33
2023-02-28T11:12:50.882Z,2.38
2023-02-28T11:15:29.338Z,2.25
2023-02-28T11:18:04.301Z,2.33
2023-02-28T11:20:38.619Z,2.17
2023-02-28T11:23:18.437Z,2.40
2023-02-28T11:25:58.929Z,2.10
2023-02-28T11:28:34.949Z,2.40
2023-02-28T11:31:18.117Z,2.20
2023-02-28T11:33:52.279Z,2.30
2023-02-28T11:36:30.705Z,2.30
2023-02-28T11:39:12.158Z,2.20
2023-02-28T11:42:05.495Z,2.10
2023-02-28T11:45:16.734Z,2.00
2023-02-28T11:47:57.825Z,1.85
2023-02-28T11:50:46.411Z,1.90
2023-02-28T11:53:30.979Z,2.00
2023-02-28T11:56:12.800Z,2.00
2023-02-28T11:58:58.637Z,1.98
2023-02-28T12:01:46.644Z,1.90
2023-02-28T12:04:31.778Z,1.77
2023-02-28T12:07:13.961Z,2.10
2023-02-28T12:10:02.337Z,1.95
2023-02-28T12:12:52.642Z,2.05
2023-02-28T12:16:09.634Z,1.80
2023-02-28T12:19:10.370Z,2.00
2023-02-28T12:22:09.848Z,1.70
2023-02-28T12:25:32.896Z,1.90
2023-02-28T12:28:07.260Z,2.08
2023-02-28T12:30:44.851Z,2.17
2023-02-28T12:33:21.257Z,2.15
2023-02-28T12:36:03.970Z,3.25
2023-02-28T12:38:45.081Z,2.63
2023-02-28T12:41:22.854Z,9.27
2023-02-28T12:44:05.620Z,8.40
2023-02-28T12:46:43.970Z,8.95
2023-02-28T12:49:22.235Z,6.10
2023-02-28T12:51:53.795Z,4.45
2023-02-28T12:54:32.875Z,3.67
2023-02-28T12:57:16.681Z,4.50
2023-02-28T12:59:57.444Z,3.47
2023-02-28T13:03:10.044Z,2.85
2023-02-28T13:06:16.618Z,2.83
2023-02-28T13:09:16.977Z,2.60
2023-02-28T13:11:49.908Z,2.40
2023-02-28T13:14:34.162Z,2.30
2023-02-28T13:17:15.865Z,2.38
2023-02-28T13:19:51.221Z,2.45
2023-02-28T13:22:40.821Z,2.40
2023-02-28T13:25:57.595Z,2.08
2023-02-28T13:29:26.538Z,2.30
2023-02-28T13:32:47.592Z,2.25
2023-02-28T13:35:48.440Z,2.17
2023-02-28T13:38:43.346Z,2.00
2023-02-28T13:41:51.033Z,2.10
2023-02-28T13:44:27.892Z,2.20
2023-02-28T13:47:32.194Z,2.15
2023-02-28T13:50:30.273Z,1.73
2023-02-28T13:53:59.506Z,1.90
2023-02-28T13:56:49.792Z,1.70
2023-02-28T13:59:35.021Z,2.55
2023-02-28T14:02:48.202Z,1.90
2023-02-28T14:05:26.879Z,2.15
2023-02-28T14:08:03.936Z,2.20
2023-02-28T14:10:41.259Z,2.10
2023-02-28T14:13:46.105Z,2.13
2023-02-28T14:16:19.668Z,1.90
2023-02-28T14:18:59.881Z,2.10
2023-02-28T14:21:46.917Z,2.13
2023-02-28T14:25:12.329Z,2.10
2023-02-28T14:27:54.107Z,2.28
2023-02-28T14:31:00.902Z,2.05
2023-02-28T14:34:04.464Z,1.75
2023-02-28T14:36:39.364Z,2.00
2023-02-28T14:39:15.575Z,2.15
2023-02-28T14:41:49.851Z,2.20
2023-02-28T14:44:23.294Z,2.30
2023-02-28T14:46:57.924Z,2.10
2023-02-28T14:49:33.487Z,2.17
2023-02-28T14:52:17.179Z,2.00
2023-02-28T14:54:49.442Z,2.25
2023-02-28T14:57:32.972Z,1.98
2023-02-28T15:00:07.649Z,2.10
2023-02-28T15:02:39.964Z,2.28
2023-02-28T15:05:28.174Z,2.13
2023-02-28T15:08:15.909Z,1.83
2023-02-28T15:10:54.482Z,2.10
2023-02-28T15:13:33.667Z,2.03
2023-02-28T15:16:07.558Z,1.75
2023-02-28T15:18:51.498Z,2.10
2023-02-28T15:21:26.926Z,1.80
2023-02-28T15:24:04.066Z,1.77
2023-02-28T15:26:42.256Z,2.03
2023-02-28T15:29:20.581Z,2.10
2023-02-28T15:31:58.495Z,2.20
2023-02-28T15:34:43.478Z,2.17
2023-02-28T15:37:43.043Z,2.20
2023-02-28T15:40:21.088Z,1.95
2023-02-28T15:43:10.870Z,2.03
2023-02-28T15:45:49.342Z,2.17
2023-02-28T15:48:25.029Z,1.77
2023-02-28T15:50:59.962Z,1.90
2023-02-28T15:53:37.139Z,1.95
2023-02-28T15:56:18.546Z,1.77
2023-02-28T15:58:49.690Z,2.13
2023-02-28T16:01:31.981Z,2.10
2023-02-28T16:04:05.978Z,2.08
2023-02-28T16:06:44.713Z,2.05
2023-02-28T16:09:19.172Z,2.20
2023-02-28T16:11:52.939Z,2.20
2023-02-28T16:14:28.445Z,2.00
2023-02-28T16:17:10.185Z,2.15
2023-02-28T16:19:40.229Z,2.10
2023-02-28T16:22:12.882Z,2.28
2023-02-28T16:24:43.172Z,2.15
2023-02-28T16:27:23.803Z,2.08
2023-02-28T16:29:54.338Z,2.00
2023-02-28T16:32:27.286Z,2.10
2023-02-28T16:34:58.193Z,2.25
2023-02-28T16:37:30.706Z,2.40
2023-02-28T16:40:01.162Z,2.17
2023-02-28T16:42:34.631Z,2.15
2023-02-28T16:45:04.512Z,2.40
2023-02-28T16:47:37.703Z,2.42
2023-02-28T16:50:18.619Z,2.30
2023-02-28T16:52:50.909Z,2.00
2023-02-28T16:55:22.397Z,2.15
2023-02-28T16:57:57.189Z,2.40
2023-02-28T17:00:29.203Z,2.22
2023-02-28T17:03:01.607Z,2.20
2023-02-28T17:05:41.191Z,2.58
2023-02-28T17:08:15.831Z,2.40
2023-02-28T17:10:46.076Z,2.30
2023-02-28T17:13:16.889Z,2.35
2023-02-28T17:15:50.808Z,3.00
2023-02-28T17:18:24.686Z,2.60
2023-02-28T17:20:55.301Z,2.38
2023-02-28T17:23:25.658Z,2.47
2023-02-28T17:25:58.083Z,2.42
2023-02-28T17:28:28.494Z,2.60
2023-02-28T17:30:59.129Z,2.72
2023-02-28T17:33:33.061Z,2.75
2023-02-28T17:36:04.210Z,2.80
2023-02-28T17:38:35.008Z,2.55
2023-02-28T17:41:05.646Z,2.45
2023-02-28T17:43:36.284Z,2.75
2023-02-28T17:46:07.375Z,2.50
2023-02-28T17:48:40.098Z,2.58
2023-02-28T17:51:11.778Z,2.72
2023-02-28T17:53:42.738Z,2.50
2023-02-28T17:56:18.730Z,2.53
2023-02-28T17:58:49.181Z,2.70
2023-02-28T18:01:21.251Z,3.00
2023-02-28T18:03:55.012Z,2.80
2023-02-28T18:06:31.132Z,2.80
2023-02-28T18:09:03.216Z,2.53
2023-02-28T18:11:47.561Z,2.60
2023-02-28T18:14:20.114Z,2.75
2023-02-28T18:16:51.426Z,2.60
2023-02-28T18:19:24.372Z,2.80
2023-02-28T18:21:56.960Z,2.60
2023-02-28T18:24:27.493Z,2.47
2023-02-28T18:26:58.283Z,3.05
2023-02-28T18:29:32.766Z,2.55
2023-02-28T18:32:06.658Z,2.85
2023-02-28T18:34:40.175Z,2.63
2023-02-28T18:37:12.407Z,3.00
2023-02-28T18:39:43.702Z,2.80
2023-02-28T18:42:15.024Z,3.05
2023-02-28T18:44:45.594Z,3.03
2023-02-28T18:47:16.111Z,2.90
2023-02-28T18:49:48.994Z,3.10
2023-02-28T18:52:19.522Z,2.97
2023-02-28T18:54:50.069Z,2.85
2023-02-28T18:57:21.203Z,2.72
2023-02-28T18:59:52.024Z,2.80
2023-02-28T19:02:23.770Z,2.55
2023-02-28T19:04:56.409Z,2.88
2023-02-28T19:07:27.615Z,2.92
2023-02-28T19:09:58.418Z,2.80
2023-02-28T19:12:30.389Z,2.83
2023-02-28T19:15:02.733Z,2.83
2023-02-28T19:17:33.757Z,2.70
2023-02-28T19:20:06.748Z,2.70
2023-02-28T19:22:37.556Z,2.83
2023-02-28T19:25:08.709Z,2.63
2023-02-28T19:27:38.848Z,2.78
2023-02-28T19:30:11.323Z,2.50
2023-02-28T19:32:43.389Z,2.75
2023-02-28T19:35:15.795Z,2.75
2023-02-28T19:37:46.655Z,2.42
2023-02-28T19:40:17.995Z,2.53
2023-02-28T19:42:48.036Z,2.70
2023-02-28T19:45:18.846Z,2.53
2023-02-28T19:47:49.399Z,2.38
2023-02-28T19:50:23.609Z,2.10
2023-02-28T19:52:54.591Z,2.20
2023-02-28T19:55:26.373Z,2.35
2023-02-28T19:57:57.110Z,2.53
2023-02-28T20:00:27.593Z,2.22
2023-02-28T20:02:58.317Z,2.50
2023-02-28T20:05:30.911Z,2.40
2023-02-28T20:08:01.969Z,2.50
2023-02-28T20:10:33.594Z,2.10
2023-02-28T20:13:03.711Z,2.30
2023-02-28T20:15:34.146Z,2.40
2023-02-28T20:18:04.812Z,2.35
2023-02-28T20:20:38.133Z,2.28
2023-02-28T20:23:08.333Z,2.10
2023-02-28T20:25:42.759Z,2.15
2023-02-28T20:28:13.389Z,2.67
2023-02-28T20:30:45.880Z,2.50
2023-02-28T20:33:16.620Z,2.22
2023-02-28T20:35:53.157Z,2.60
2023-02-28T20:38:23.651Z,2.33
2023-02-28T20:40:57.516Z,2.60
2023-02-28T20:43:27.988Z,2.35
2023-02-28T20:46:02.224Z,2.42
2023-02-28T20:48:36.381Z,2.40
2023-02-28T20:51:11.843Z,2.35
2023-02-28T20:53:44.143Z,2.67
2023-02-28T20:56:17.156Z,2.53
2023-02-28T20:58:50.350Z,2.80
2023-02-28T21:01:26.457Z,2.67
2023-02-28T21:04:01.614Z,2.55
2023-02-28T21:06:38.337Z,2.55
2023-02-28T21:09:11.341Z,2.63
2023-02-28T21:11:43.331Z,2.40
2023-02-28T21:14:19.235Z,2.78
2023-02-28T21:16:49.509Z,2.70
2023-02-28T21:19:21.005Z,2.88
2023-02-28T21:21:53.544Z,2.67
2023-02-28T21:24:27.512Z,2.63
2023-02-28T21:27:00.163Z,2.60
2023-02-28T21:29:31.165Z,3.00
2023-02-28T21:32:02.672Z,2.80
2023-02-28T21:34:32.709Z,2.55
2023-02-28T21:37:07.345Z,2.65
2023-02-28T21:39:39.095Z,2.33
2023-02-28T21:42:09.965Z,2.30
2023-02-28T21:44:39.917Z,2.45
2023-02-28T21:47:11.932Z,2.15
2023-02-28T21:49:43.061Z,2.45
2023-02-28T21:52:22.592Z,2.50
2023-02-28T21:54:53.635Z,2.30
2023-02-28T21:57:24.166Z,2.20
2023-02-28T21:59:54.404Z,2.33
2023-02-28T22:02:24.152Z,2.20
2023-02-28T22:04:55.388Z,2.30
2023-02-28T22:07:28.426Z,2.33
2023-02-28T22:09:59.215Z,2.08
2023-02-28T22:12:33.764Z,2.17
2023-02-28T22:15:04.682Z,2.30
2023-02-28T22:17:36.674Z,2.42
2023-02-28T22:20:09.063Z,2.38
2023-02-28T22:22:41.461Z,2.22
2023-02-28T22:25:12.918Z,2.42
2023-02-28T22:27:43.542Z,2.33
2023-02-28T22:30:15.356Z,2.40
2023-02-28T22:32:46.269Z,2.30
2023-02-28T22:35:20.100Z,2.55
2023-02-28T22:37:53.600Z,2.30
2023-02-28T22:40:23.731Z,2.35
2023-02-28T22:42:55.194Z,2.38
2023-02-28T22:45:25.849Z,2.30
2023-02-28T22:47:57.447Z,2.50
2023-02-28T22:50:30.228Z,2.50
2023-02-28T22:53:03.782Z,2.35
2023-02-28T22:55:34.252Z,2.60
2023-02-28T22:58:04.380Z,2.53
2023-02-28T23:00:35.274Z,2.60
2023-02-28T23:03:05.215Z,3.00
2023-02-28T23:05:36.068Z,2.60
2023-02-28T23:08:08.589Z,2.80
2023-02-28T23:10:43.785Z,2.65
2023-02-28T23:13:14.498Z,2.65
2023-02-28T23:15:45.320Z,2.58
2023-02-28T23:18:19.126Z,2.45
2023-02-28T23:20:49.974Z,2.70
2023-02-28T23:23:22.610Z,2.38
2023-02-28T23:25:53.153Z,2.45
2023-02-28T23:28:24.079Z,2.67
2023-02-28T23:30:54.612Z,2.58
2023-02-28T23:33:26.970Z,2.55
2023-02-28T23:35:56.735Z,2.50
2023-02-28T23:38:30.628Z,2.45
2023-02-28T23:41:00.485Z,2.25
2023-02-28T23:43:31.002Z,2.50
2023-02-28T23:46:01.572Z,2.22
2023-02-28T23:48:32.865Z,2.13
2023-02-28T23:51:09.708Z,2.30
2023-02-28T23:53:45.891Z,2.22
2023-02-28T23:56:20.788Z,2.20
2023-02-28T23:58:51.659Z,2.38
